sensor_id;sensor_type;location;lat;lon;timestamp;P1;durP1;ratioP1;P2;durP2;ratioP2
75593;SDS011;64176;49.156;7.810;2024-03-29T00:01:20;2.92;;;2.53;;
75593;SDS011;64176;49.156;7.810;2024-03-29T00:04:06;4.20;;;2.45;;
75593;SDS011;64176;49.156;7.810;2024-03-29T00:06:55;3.85;;;2.25;;
75593;SDS011;64176;49.156;7.810;2024-03-29T00:09:39;2.30;;;2.10;;
75593;SDS011;64176;49.156;7.810;2024-03-29T00:12:26;2.08;;;1.73;;
75593;SDS011;64176;49.156;7.810;2024-03-29T00:15:12;1.15;;;1.00;;
75593;SDS011;64176;49.156;7.810;2024-03-29T00:17:59;2.38;;;1.63;;
75593;SDS011;64176;49.156;7.810;2024-03-29T00:20:46;4.90;;;2.55;;
75593;SDS011;64176;49.156;7.810;2024-03-29T00:26:17;4.30;;;2.28;;
75593;SDS011;64176;49.156;7.810;2024-03-29T00:29:03;3.55;;;2.72;;
75593;SDS011;64176;49.156;7.810;2024-03-29T00:31:52;3.80;;;2.22;;
75593;SDS011;64176;49.156;7.810;2024-03-29T00:34:39;8.63;;;2.95;;
75593;SDS011;64176;49.156;7.810;2024-03-29T00:37:28;3.30;;;2.95;;
75593;SDS011;64176;49.156;7.810;2024-03-29T00:40:12;2.70;;;2.50;;
75593;SDS011;64176;49.156;7.810;2024-03-29T00:42:56;4.40;;;2.75;;
75593;SDS011;64176;49.156;7.810;2024-03-29T00:45:42;3.35;;;2.50;;
75593;SDS011;64176;49.156;7.810;2024-03-29T00:48:27;3.60;;;2.28;;
75593;SDS011;64176;49.156;7.810;2024-03-29T00:51:11;6.40;;;1.33;;
75593;SDS011;64176;49.156;7.810;2024-03-29T00:54:00;2.28;;;1.83;;
75593;SDS011;64176;49.156;7.810;2024-03-29T00:56:44;3.00;;;2.05;;
75593;SDS011;64176;49.156;7.810;2024-03-29T00:59:31;2.63;;;1.95;;
75593;SDS011;64176;49.156;7.810;2024-03-29T01:02:14;3.53;;;1.73;;
75593;SDS011;64176;49.156;7.810;2024-03-29T01:05:01;4.88;;;1.75;;
75593;SDS011;64176;49.156;7.810;2024-03-29T01:10:35;3.97;;;2.03;;
75593;SDS011;64176;49.156;7.810;2024-03-29T01:13:19;4.95;;;3.15;;
75593;SDS011;64176;49.156;7.810;2024-03-29T01:16:03;4.07;;;2.45;;
75593;SDS011;64176;49.156;7.810;2024-03-29T01:18:56;2.05;;;1.80;;
75593;SDS011;64176;49.156;7.810;2024-03-29T01:21:44;2.75;;;2.55;;
75593;SDS011;64176;49.156;7.810;2024-03-29T01:24:31;2.95;;;2.30;;
75593;SDS011;64176;49.156;7.810;2024-03-29T01:27:14;3.00;;;2.30;;
75593;SDS011;64176;49.156;7.810;2024-03-29T01:29:58;3.15;;;1.90;;
75593;SDS011;64176;49.156;7.810;2024-03-29T01:32:47;11.85;;;2.55;;
75593;SDS011;64176;49.156;7.810;2024-03-29T01:35:31;4.50;;;2.85;;
75593;SDS011;64176;49.156;7.810;2024-03-29T01:38:15;3.53;;;2.40;;
75593;SDS011;64176;49.156;7.810;2024-03-29T01:40:59;2.15;;;1.95;;
75593;SDS011;64176;49.156;7.810;2024-03-29T01:43:43;3.28;;;2.50;;
75593;SDS011;64176;49.156;7.810;2024-03-29T01:46:27;3.17;;;2.53;;
75593;SDS011;64176;49.156;7.810;2024-03-29T01:49:12;3.35;;;2.30;;
75593;SDS011;64176;49.156;7.810;2024-03-29T01:51:56;3.65;;;2.50;;
75593;SDS011;64176;49.156;7.810;2024-03-29T01:54:43;4.22;;;2.55;;
75593;SDS011;64176;49.156;7.810;2024-03-29T01:57:32;4.43;;;4.03;;
75593;SDS011;64176;49.156;7.810;2024-03-29T02:00:16;3.95;;;2.42;;
75593;SDS011;64176;49.156;7.810;2024-03-29T02:03:02;4.47;;;2.75;;
75593;SDS011;64176;49.156;7.810;2024-03-29T02:05:48;6.80;;;3.10;;
75593;SDS011;64176;49.156;7.810;2024-03-29T02:08:36;2.90;;;2.53;;
75593;SDS011;64176;49.156;7.810;2024-03-29T02:11:20;3.50;;;3.03;;
75593;SDS011;64176;49.156;7.810;2024-03-29T02:14:05;3.72;;;2.85;;
75593;SDS011;64176;49.156;7.810;2024-03-29T02:16:52;3.13;;;2.78;;
75593;SDS011;64176;49.156;7.810;2024-03-29T02:19:36;3.35;;;2.40;;
75593;SDS011;64176;49.156;7.810;2024-03-29T02:22:20;3.38;;;2.38;;
75593;SDS011;64176;49.156;7.810;2024-03-29T02:25:09;3.45;;;3.13;;
75593;SDS011;64176;49.156;7.810;2024-03-29T02:27:59;7.25;;;3.50;;
75593;SDS011;64176;49.156;7.810;2024-03-29T02:30:45;2.80;;;2.38;;
75593;SDS011;64176;49.156;7.810;2024-03-29T02:33:29;5.25;;;1.98;;
75593;SDS011;64176;49.156;7.810;2024-03-29T02:36:13;5.40;;;2.92;;
75593;SDS011;64176;49.156;7.810;2024-03-29T02:38:57;3.08;;;1.92;;
75593;SDS011;64176;49.156;7.810;2024-03-29T02:41:48;3.92;;;2.65;;
75593;SDS011;64176;49.156;7.810;2024-03-29T02:44:35;3.45;;;2.63;;
75593;SDS011;64176;49.156;7.810;2024-03-29T02:47:22;4.93;;;4.20;;
75593;SDS011;64176;49.156;7.810;2024-03-29T02:50:10;6.72;;;4.22;;
75593;SDS011;64176;49.156;7.810;2024-03-29T02:52:55;5.68;;;3.15;;
75593;SDS011;64176;49.156;7.810;2024-03-29T02:55:41;5.78;;;2.97;;
75593;SDS011;64176;49.156;7.810;2024-03-29T02:58:25;6.60;;;2.88;;
75593;SDS011;64176;49.156;7.810;2024-03-29T03:01:09;6.15;;;3.50;;
75593;SDS011;64176;49.156;7.810;2024-03-29T03:03:55;8.32;;;3.63;;
75593;SDS011;64176;49.156;7.810;2024-03-29T03:06:42;5.13;;;3.53;;
75593;SDS011;64176;49.156;7.810;2024-03-29T03:12:34;4.32;;;3.90;;
75593;SDS011;64176;49.156;7.810;2024-03-29T03:15:20;6.13;;;2.47;;
75593;SDS011;64176;49.156;7.810;2024-03-29T03:18:04;4.72;;;3.33;;
75593;SDS011;64176;49.156;7.810;2024-03-29T03:20:52;3.85;;;3.17;;
75593;SDS011;64176;49.156;7.810;2024-03-29T03:23:36;6.07;;;2.70;;
75593;SDS011;64176;49.156;7.810;2024-03-29T03:26:20;4.40;;;2.40;;
75593;SDS011;64176;49.156;7.810;2024-03-29T03:29:04;5.65;;;3.70;;
75593;SDS011;64176;49.156;7.810;2024-03-29T03:31:51;5.75;;;3.78;;
75593;SDS011;64176;49.156;7.810;2024-03-29T03:34:38;4.63;;;3.28;;
75593;SDS011;64176;49.156;7.810;2024-03-29T03:37:22;4.47;;;3.13;;
75593;SDS011;64176;49.156;7.810;2024-03-29T03:40:06;4.55;;;3.00;;
75593;SDS011;64176;49.156;7.810;2024-03-29T03:42:50;4.55;;;2.90;;
75593;SDS011;64176;49.156;7.810;2024-03-29T03:45:37;5.38;;;2.78;;
75593;SDS011;64176;49.156;7.810;2024-03-29T03:48:24;5.55;;;2.78;;
75593;SDS011;64176;49.156;7.810;2024-03-29T03:51:08;3.72;;;1.92;;
75593;SDS011;64176;49.156;7.810;2024-03-29T03:53:54;2.85;;;1.95;;
75593;SDS011;64176;49.156;7.810;2024-03-29T03:56:38;5.82;;;2.40;;
75593;SDS011;64176;49.156;7.810;2024-03-29T03:59:27;2.78;;;2.47;;
75593;SDS011;64176;49.156;7.810;2024-03-29T04:02:11;4.25;;;3.67;;
75593;SDS011;64176;49.156;7.810;2024-03-29T04:04:58;6.80;;;3.85;;
75593;SDS011;64176;49.156;7.810;2024-03-29T04:07:42;5.35;;;3.13;;
75593;SDS011;64176;49.156;7.810;2024-03-29T04:10:28;3.47;;;2.15;;
75593;SDS011;64176;49.156;7.810;2024-03-29T04:13:15;4.57;;;2.75;;
75593;SDS011;64176;49.156;7.810;2024-03-29T04:16:07;3.75;;;3.17;;
75593;SDS011;64176;49.156;7.810;2024-03-29T04:18:51;3.28;;;2.80;;
75593;SDS011;64176;49.156;7.810;2024-03-29T04:21:35;2.92;;;1.90;;
75593;SDS011;64176;49.156;7.810;2024-03-29T04:24:22;2.90;;;2.10;;
75593;SDS011;64176;49.156;7.810;2024-03-29T04:27:06;4.05;;;2.63;;
75593;SDS011;64176;49.156;7.810;2024-03-29T04:29:53;3.08;;;2.40;;
75593;SDS011;64176;49.156;7.810;2024-03-29T04:32:40;7.50;;;3.13;;
75593;SDS011;64176;49.156;7.810;2024-03-29T04:35:27;6.47;;;3.80;;
75593;SDS011;64176;49.156;7.810;2024-03-29T04:38:11;4.82;;;3.38;;
75593;SDS011;64176;49.156;7.810;2024-03-29T04:40:55;5.68;;;3.40;;
75593;SDS011;64176;49.156;7.810;2024-03-29T04:43:43;4.75;;;2.33;;
75593;SDS011;64176;49.156;7.810;2024-03-29T04:46:28;5.20;;;3.17;;
75593;SDS011;64176;49.156;7.810;2024-03-29T04:49:18;7.10;;;3.53;;
75593;SDS011;64176;49.156;7.810;2024-03-29T04:52:09;6.88;;;3.28;;
75593;SDS011;64176;49.156;7.810;2024-03-29T04:54:53;4.38;;;2.75;;
75593;SDS011;64176;49.156;7.810;2024-03-29T04:57:37;11.23;;;6.03;;
75593;SDS011;64176;49.156;7.810;2024-03-29T05:00:23;5.75;;;4.97;;
75593;SDS011;64176;49.156;7.810;2024-03-29T05:03:07;8.10;;;6.47;;
75593;SDS011;64176;49.156;7.810;2024-03-29T05:05:54;8.40;;;5.20;;
75593;SDS011;64176;49.156;7.810;2024-03-29T05:08:42;9.45;;;6.15;;
75593;SDS011;64176;49.156;7.810;2024-03-29T05:11:27;9.68;;;5.45;;
75593;SDS011;64176;49.156;7.810;2024-03-29T05:14:14;10.93;;;6.53;;
75593;SDS011;64176;49.156;7.810;2024-03-29T05:17:02;16.05;;;10.00;;
75593;SDS011;64176;49.156;7.810;2024-03-29T05:19:46;9.82;;;6.65;;
75593;SDS011;64176;49.156;7.810;2024-03-29T05:22:30;7.03;;;4.72;;
75593;SDS011;64176;49.156;7.810;2024-03-29T05:25:17;10.93;;;4.65;;
75593;SDS011;64176;49.156;7.810;2024-03-29T05:30:46;8.38;;;7.28;;
75593;SDS011;64176;49.156;7.810;2024-03-29T05:33:32;6.50;;;4.18;;
75593;SDS011;64176;49.156;7.810;2024-03-29T05:36:21;7.03;;;5.57;;
75593;SDS011;64176;49.156;7.810;2024-03-29T05:39:06;6.25;;;5.65;;
75593;SDS011;64176;49.156;7.810;2024-03-29T05:41:50;4.60;;;3.25;;
75593;SDS011;64176;49.156;7.810;2024-03-29T05:44:35;5.80;;;4.32;;
75593;SDS011;64176;49.156;7.810;2024-03-29T05:47:20;5.95;;;3.45;;
75593;SDS011;64176;49.156;7.810;2024-03-29T05:50:09;4.05;;;3.70;;
75593;SDS011;64176;49.156;7.810;2024-03-29T05:52:53;7.57;;;4.82;;
75593;SDS011;64176;49.156;7.810;2024-03-29T05:55:40;4.32;;;3.45;;
75593;SDS011;64176;49.156;7.810;2024-03-29T05:58:26;6.25;;;3.30;;
75593;SDS011;64176;49.156;7.810;2024-03-29T06:01:16;4.10;;;3.20;;
75593;SDS011;64176;49.156;7.810;2024-03-29T06:04:00;4.53;;;2.70;;
75593;SDS011;64176;49.156;7.810;2024-03-29T06:06:51;4.60;;;3.78;;
75593;SDS011;64176;49.156;7.810;2024-03-29T06:09:36;5.90;;;3.63;;
75593;SDS011;64176;49.156;7.810;2024-03-29T06:12:19;6.03;;;2.88;;
75593;SDS011;64176;49.156;7.810;2024-03-29T06:15:06;7.40;;;3.95;;
75593;SDS011;64176;49.156;7.810;2024-03-29T06:18:09;5.43;;;3.05;;
75593;SDS011;64176;49.156;7.810;2024-03-29T06:20:54;5.05;;;3.53;;
75593;SDS011;64176;49.156;7.810;2024-03-29T06:23:39;6.63;;;4.40;;
75593;SDS011;64176;49.156;7.810;2024-03-29T06:26:23;8.15;;;4.20;;
75593;SDS011;64176;49.156;7.810;2024-03-29T06:29:07;6.65;;;5.32;;
75593;SDS011;64176;49.156;7.810;2024-03-29T06:31:53;6.95;;;5.97;;
75593;SDS011;64176;49.156;7.810;2024-03-29T06:34:39;5.25;;;2.83;;
75593;SDS011;64176;49.156;7.810;2024-03-29T06:37:24;4.18;;;2.83;;
75593;SDS011;64176;49.156;7.810;2024-03-29T06:40:11;4.68;;;3.33;;
75593;SDS011;64176;49.156;7.810;2024-03-29T06:42:55;6.78;;;4.43;;
75593;SDS011;64176;49.156;7.810;2024-03-29T06:45:41;7.75;;;5.35;;
75593;SDS011;64176;49.156;7.810;2024-03-29T06:48:29;6.28;;;5.60;;
75593;SDS011;64176;49.156;7.810;2024-03-29T06:51:15;7.68;;;5.28;;
75593;SDS011;64176;49.156;7.810;2024-03-29T06:54:04;8.60;;;5.53;;
75593;SDS011;64176;49.156;7.810;2024-03-29T06:56:48;9.55;;;4.32;;
75593;SDS011;64176;49.156;7.810;2024-03-29T06:59:33;10.73;;;5.38;;
75593;SDS011;64176;49.156;7.810;2024-03-29T07:02:17;7.18;;;3.90;;
75593;SDS011;64176;49.156;7.810;2024-03-29T07:05:01;6.43;;;4.38;;
75593;SDS011;64176;49.156;7.810;2024-03-29T07:07:51;9.32;;;4.90;;
75593;SDS011;64176;49.156;7.810;2024-03-29T07:10:35;7.82;;;3.92;;
75593;SDS011;64176;49.156;7.810;2024-03-29T07:13:18;5.55;;;5.03;;
75593;SDS011;64176;49.156;7.810;2024-03-29T07:16:05;8.90;;;5.65;;
75593;SDS011;64176;49.156;7.810;2024-03-29T07:18:50;6.25;;;4.90;;
75593;SDS011;64176;49.156;7.810;2024-03-29T07:21:34;5.78;;;5.07;;
75593;SDS011;64176;49.156;7.810;2024-03-29T07:24:19;11.15;;;5.57;;
75593;SDS011;64176;49.156;7.810;2024-03-29T07:27:03;6.10;;;4.63;;
75593;SDS011;64176;49.156;7.810;2024-03-29T07:29:48;9.88;;;5.25;;
75593;SDS011;64176;49.156;7.810;2024-03-29T07:32:32;6.70;;;4.82;;
75593;SDS011;64176;49.156;7.810;2024-03-29T07:38:08;6.18;;;4.97;;
75593;SDS011;64176;49.156;7.810;2024-03-29T07:40:52;6.60;;;4.80;;
75593;SDS011;64176;49.156;7.810;2024-03-29T07:43:39;7.00;;;5.78;;
75593;SDS011;64176;49.156;7.810;2024-03-29T07:46:27;9.07;;;6.15;;
75593;SDS011;64176;49.156;7.810;2024-03-29T07:49:12;8.15;;;5.68;;
75593;SDS011;64176;49.156;7.810;2024-03-29T07:52:02;9.95;;;6.50;;
75593;SDS011;64176;49.156;7.810;2024-03-29T07:54:49;8.60;;;6.53;;
75593;SDS011;64176;49.156;7.810;2024-03-29T07:57:33;8.30;;;6.38;;
75593;SDS011;64176;49.156;7.810;2024-03-29T08:00:17;8.95;;;7.35;;
75593;SDS011;64176;49.156;7.810;2024-03-29T08:03:04;8.48;;;6.75;;
75593;SDS011;64176;49.156;7.810;2024-03-29T08:06:09;8.55;;;5.45;;
75593;SDS011;64176;49.156;7.810;2024-03-29T08:08:55;6.97;;;5.13;;
75593;SDS011;64176;49.156;7.810;2024-03-29T08:11:42;10.02;;;7.57;;
75593;SDS011;64176;49.156;7.810;2024-03-29T08:14:28;9.18;;;7.07;;
75593;SDS011;64176;49.156;7.810;2024-03-29T08:17:17;7.75;;;6.28;;
75593;SDS011;64176;49.156;7.810;2024-03-29T08:20:01;8.00;;;6.85;;
75593;SDS011;64176;49.156;7.810;2024-03-29T08:22:46;13.07;;;10.25;;
75593;SDS011;64176;49.156;7.810;2024-03-29T08:25:35;16.85;;;11.85;;
75593;SDS011;64176;49.156;7.810;2024-03-29T08:28:21;12.25;;;9.10;;
75593;SDS011;64176;49.156;7.810;2024-03-29T08:31:10;10.73;;;9.27;;
75593;SDS011;64176;49.156;7.810;2024-03-29T08:33:57;16.73;;;11.32;;
75593;SDS011;64176;49.156;7.810;2024-03-29T08:36:42;25.67;;;15.77;;
75593;SDS011;64176;49.156;7.810;2024-03-29T08:39:29;22.33;;;17.45;;
75593;SDS011;64176;49.156;7.810;2024-03-29T08:42:14;23.58;;;18.17;;
75593;SDS011;64176;49.156;7.810;2024-03-29T08:45:00;34.63;;;27.55;;
75593;SDS011;64176;49.156;7.810;2024-03-29T08:47:46;30.60;;;25.00;;
75593;SDS011;64176;49.156;7.810;2024-03-29T08:50:30;35.80;;;25.00;;
75593;SDS011;64176;49.156;7.810;2024-03-29T08:53:17;25.55;;;18.05;;
75593;SDS011;64176;49.156;7.810;2024-03-29T08:56:01;14.13;;;10.15;;
75593;SDS011;64176;49.156;7.810;2024-03-29T08:58:47;13.13;;;9.18;;
75593;SDS011;64176;49.156;7.810;2024-03-29T09:01:34;15.90;;;9.63;;
75593;SDS011;64176;49.156;7.810;2024-03-29T09:04:20;8.85;;;6.60;;
75593;SDS011;64176;49.156;7.810;2024-03-29T09:07:04;9.77;;;7.78;;
75593;SDS011;64176;49.156;7.810;2024-03-29T09:09:49;12.68;;;10.40;;
75593;SDS011;64176;49.156;7.810;2024-03-29T09:12:33;15.00;;;10.27;;
75593;SDS011;64176;49.156;7.810;2024-03-29T09:15:19;14.60;;;10.18;;
75593;SDS011;64176;49.156;7.810;2024-03-29T09:18:06;15.02;;;10.38;;
75593;SDS011;64176;49.156;7.810;2024-03-29T09:20:57;8.88;;;7.65;;
75593;SDS011;64176;49.156;7.810;2024-03-29T09:23:45;14.63;;;10.48;;
75593;SDS011;64176;49.156;7.810;2024-03-29T09:26:37;10.15;;;6.50;;
75593;SDS011;64176;49.156;7.810;2024-03-29T09:29:23;9.68;;;7.28;;
75593;SDS011;64176;49.156;7.810;2024-03-29T09:32:07;6.13;;;5.63;;
75593;SDS011;64176;49.156;7.810;2024-03-29T09:34:54;3.22;;;2.92;;
75593;SDS011;64176;49.156;7.810;2024-03-29T09:37:40;8.38;;;5.18;;
75593;SDS011;64176;49.156;7.810;2024-03-29T09:40:27;6.90;;;5.82;;
75593;SDS011;64176;49.156;7.810;2024-03-29T09:43:18;19.23;;;17.60;;
75593;SDS011;64176;49.156;7.810;2024-03-29T09:46:08;6.80;;;5.30;;
75593;SDS011;64176;49.156;7.810;2024-03-29T09:48:56;5.18;;;4.53;;
75593;SDS011;64176;49.156;7.810;2024-03-29T09:51:42;5.32;;;4.85;;
75593;SDS011;64176;49.156;7.810;2024-03-29T09:54:29;4.22;;;3.60;;
75593;SDS011;64176;49.156;7.810;2024-03-29T09:57:16;6.47;;;2.95;;
75593;SDS011;64176;49.156;7.810;2024-03-29T10:00:05;4.07;;;3.30;;
75593;SDS011;64176;49.156;7.810;2024-03-29T10:02:52;9.65;;;4.57;;
75593;SDS011;64176;49.156;7.810;2024-03-29T10:05:39;5.28;;;3.17;;
75593;SDS011;64176;49.156;7.810;2024-03-29T10:08:24;5.85;;;3.03;;
75593;SDS011;64176;49.156;7.810;2024-03-29T10:11:13;2.78;;;2.13;;
75593;SDS011;64176;49.156;7.810;2024-03-29T10:14:00;5.35;;;3.83;;
75593;SDS011;64176;49.156;7.810;2024-03-29T10:16:44;5.70;;;4.60;;
75593;SDS011;64176;49.156;7.810;2024-03-29T10:19:30;3.90;;;3.13;;
75593;SDS011;64176;49.156;7.810;2024-03-29T10:22:14;3.60;;;3.28;;
75593;SDS011;64176;49.156;7.810;2024-03-29T10:24:58;4.47;;;2.90;;
75593;SDS011;64176;49.156;7.810;2024-03-29T10:27:44;5.00;;;3.33;;
75593;SDS011;64176;49.156;7.810;2024-03-29T10:30:31;5.40;;;3.58;;
75593;SDS011;64176;49.156;7.810;2024-03-29T10:33:15;4.57;;;4.07;;
75593;SDS011;64176;49.156;7.810;2024-03-29T10:36:03;13.82;;;12.48;;
75593;SDS011;64176;49.156;7.810;2024-03-29T10:38:52;9.48;;;8.65;;
75593;SDS011;64176;49.156;7.810;2024-03-29T10:41:42;6.82;;;6.00;;
75593;SDS011;64176;49.156;7.810;2024-03-29T10:44:30;6.53;;;5.70;;
75593;SDS011;64176;49.156;7.810;2024-03-29T10:47:20;8.77;;;5.90;;
75593;SDS011;64176;49.156;7.810;2024-03-29T10:50:04;8.90;;;6.80;;
75593;SDS011;64176;49.156;7.810;2024-03-29T10:52:52;5.57;;;5.07;;
75593;SDS011;64176;49.156;7.810;2024-03-29T10:55:40;11.02;;;7.57;;
75593;SDS011;64176;49.156;7.810;2024-03-29T10:58:28;7.57;;;6.47;;
75593;SDS011;64176;49.156;7.810;2024-03-29T11:01:14;8.60;;;6.32;;
75593;SDS011;64176;49.156;7.810;2024-03-29T11:04:01;10.80;;;7.15;;
75593;SDS011;64176;49.156;7.810;2024-03-29T11:06:54;7.10;;;6.18;;
75593;SDS011;64176;49.156;7.810;2024-03-29T11:09:43;6.45;;;5.50;;
75593;SDS011;64176;49.156;7.810;2024-03-29T11:12:39;6.95;;;5.95;;
75593;SDS011;64176;49.156;7.810;2024-03-29T11:15:30;6.00;;;4.88;;
75593;SDS011;64176;49.156;7.810;2024-03-29T11:18:17;7.57;;;5.80;;
75593;SDS011;64176;49.156;7.810;2024-03-29T11:21:03;9.43;;;6.30;;
75593;SDS011;64176;49.156;7.810;2024-03-29T11:23:52;8.27;;;5.25;;
75593;SDS011;64176;49.156;7.810;2024-03-29T11:26:37;3.95;;;3.00;;
75593;SDS011;64176;49.156;7.810;2024-03-29T11:29:22;4.32;;;3.15;;
75593;SDS011;64176;49.156;7.810;2024-03-29T11:32:10;4.57;;;3.53;;
75593;SDS011;64176;49.156;7.810;2024-03-29T11:34:54;5.15;;;3.10;;
75593;SDS011;64176;49.156;7.810;2024-03-29T11:37:39;3.63;;;3.33;;
75593;SDS011;64176;49.156;7.810;2024-03-29T11:40:26;4.82;;;2.90;;
75593;SDS011;64176;49.156;7.810;2024-03-29T11:43:16;3.20;;;2.25;;
75593;SDS011;64176;49.156;7.810;2024-03-29T11:46:00;10.60;;;4.38;;
75593;SDS011;64176;49.156;7.810;2024-03-29T11:48:46;11.52;;;5.50;;
75593;SDS011;64176;49.156;7.810;2024-03-29T11:51:33;11.30;;;5.32;;
75593;SDS011;64176;49.156;7.810;2024-03-29T11:54:19;5.20;;;4.05;;
75593;SDS011;64176;49.156;7.810;2024-03-29T11:57:09;6.30;;;3.63;;
75593;SDS011;64176;49.156;7.810;2024-03-29T11:59:53;6.47;;;4.18;;
75593;SDS011;64176;49.156;7.810;2024-03-29T12:02:40;6.80;;;3.67;;
75593;SDS011;64176;49.156;7.810;2024-03-29T12:05:26;4.05;;;3.65;;
75593;SDS011;64176;49.156;7.810;2024-03-29T12:08:12;3.58;;;3.28;;
75593;SDS011;64176;49.156;7.810;2024-03-29T12:10:57;4.85;;;3.22;;
75593;SDS011;64176;49.156;7.810;2024-03-29T12:13:42;16.48;;;11.57;;
75593;SDS011;64176;49.156;7.810;2024-03-29T12:16:28;6.90;;;5.88;;
75593;SDS011;64176;49.156;7.810;2024-03-29T12:19:24;11.30;;;7.82;;
75593;SDS011;64176;49.156;7.810;2024-03-29T12:22:08;8.23;;;6.25;;
75593;SDS011;64176;49.156;7.810;2024-03-29T12:24:55;9.05;;;6.85;;
75593;SDS011;64176;49.156;7.810;2024-03-29T12:27:39;9.38;;;6.20;;
75593;SDS011;64176;49.156;7.810;2024-03-29T12:30:23;7.63;;;5.38;;
75593;SDS011;64176;49.156;7.810;2024-03-29T12:33:14;7.10;;;5.57;;
75593;SDS011;64176;49.156;7.810;2024-03-29T12:35:59;10.30;;;7.55;;
75593;SDS011;64176;49.156;7.810;2024-03-29T12:38:43;12.07;;;8.75;;
75593;SDS011;64176;49.156;7.810;2024-03-29T12:41:29;6.90;;;6.30;;
75593;SDS011;64176;49.156;7.810;2024-03-29T12:44:13;6.55;;;5.95;;
75593;SDS011;64176;49.156;7.810;2024-03-29T12:47:00;7.38;;;6.70;;
75593;SDS011;64176;49.156;7.810;2024-03-29T12:49:49;6.93;;;6.22;;
75593;SDS011;64176;49.156;7.810;2024-03-29T12:52:39;6.35;;;5.75;;
75593;SDS011;64176;49.156;7.810;2024-03-29T12:55:29;7.03;;;6.32;;
75593;SDS011;64176;49.156;7.810;2024-03-29T12:58:15;4.43;;;4.03;;
75593;SDS011;64176;49.156;7.810;2024-03-29T13:01:05;4.18;;;3.50;;
75593;SDS011;64176;49.156;7.810;2024-03-29T13:03:50;9.57;;;8.10;;
75593;SDS011;64176;49.156;7.810;2024-03-29T13:06:35;6.28;;;4.35;;
75593;SDS011;64176;49.156;7.810;2024-03-29T13:09:19;2.55;;;1.95;;
75593;SDS011;64176;49.156;7.810;2024-03-29T13:12:08;3.92;;;2.72;;
75593;SDS011;64176;49.156;7.810;2024-03-29T13:14:56;5.90;;;3.25;;
75593;SDS011;64176;49.156;7.810;2024-03-29T13:17:43;9.73;;;8.55;;
75593;SDS011;64176;49.156;7.810;2024-03-29T13:20:30;5.57;;;5.00;;
75593;SDS011;64176;49.156;7.810;2024-03-29T13:23:18;3.80;;;3.40;;
75593;SDS011;64176;49.156;7.810;2024-03-29T13:26:02;2.42;;;2.10;;
75593;SDS011;64176;49.156;7.810;2024-03-29T13:28:49;2.72;;;1.92;;
75593;SDS011;64176;49.156;7.810;2024-03-29T13:31:33;3.58;;;2.97;;
75593;SDS011;64176;49.156;7.810;2024-03-29T13:34:17;4.72;;;3.50;;
75593;SDS011;64176;49.156;7.810;2024-03-29T13:37:01;13.07;;;9.80;;
75593;SDS011;64176;49.156;7.810;2024-03-29T13:39:45;13.48;;;9.48;;
75593;SDS011;64176;49.156;7.810;2024-03-29T13:42:32;12.27;;;9.07;;
75593;SDS011;64176;49.156;7.810;2024-03-29T13:45:16;6.00;;;5.40;;
75593;SDS011;64176;49.156;7.810;2024-03-29T13:48:00;8.88;;;7.97;;
75593;SDS011;64176;49.156;7.810;2024-03-29T13:50:44;6.30;;;4.00;;
75593;SDS011;64176;49.156;7.810;2024-03-29T13:53:31;12.75;;;7.85;;
75593;SDS011;64176;49.156;7.810;2024-03-29T13:56:18;8.48;;;6.10;;
75593;SDS011;64176;49.156;7.810;2024-03-29T13:59:05;11.70;;;7.82;;
75593;SDS011;64176;49.156;7.810;2024-03-29T14:01:49;7.32;;;5.35;;
75593;SDS011;64176;49.156;7.810;2024-03-29T14:04:35;9.73;;;7.47;;
75593;SDS011;64176;49.156;7.810;2024-03-29T14:12:50;8.90;;;6.53;;
75593;SDS011;64176;49.156;7.810;2024-03-29T14:15:37;6.00;;;5.18;;
75593;SDS011;64176;49.156;7.810;2024-03-29T14:18:24;5.07;;;4.55;;
75593;SDS011;64176;49.156;7.810;2024-03-29T14:21:10;17.60;;;12.15;;
75593;SDS011;64176;49.156;7.810;2024-03-29T14:23:59;9.50;;;7.72;;
75593;SDS011;64176;49.156;7.810;2024-03-29T14:26:46;4.88;;;4.05;;
75593;SDS011;64176;49.156;7.810;2024-03-29T14:29:31;2.40;;;1.85;;
75593;SDS011;64176;49.156;7.810;2024-03-29T14:32:18;2.50;;;2.08;;
75593;SDS011;64176;49.156;7.810;2024-03-29T14:35:04;1.20;;;1.10;;
75593;SDS011;64176;49.156;7.810;2024-03-29T14:37:51;7.07;;;4.55;;
75593;SDS011;64176;49.156;7.810;2024-03-29T14:40:38;7.07;;;3.50;;
75593;SDS011;64176;49.156;7.810;2024-03-29T14:43:22;3.08;;;1.45;;
75593;SDS011;64176;49.156;7.810;2024-03-29T14:46:06;6.75;;;5.38;;
75593;SDS011;64176;49.156;7.810;2024-03-29T14:48:55;2.42;;;1.17;;
75593;SDS011;64176;49.156;7.810;2024-03-29T14:51:40;3.72;;;2.10;;
75593;SDS011;64176;49.156;7.810;2024-03-29T14:54:27;2.70;;;1.83;;
75593;SDS011;64176;49.156;7.810;2024-03-29T14:57:13;2.10;;;1.70;;
75593;SDS011;64176;49.156;7.810;2024-03-29T14:59:58;4.25;;;3.95;;
75593;SDS011;64176;49.156;7.810;2024-03-29T15:02:42;2.22;;;1.95;;
75593;SDS011;64176;49.156;7.810;2024-03-29T15:05:33;7.47;;;5.30;;
75593;SDS011;64176;49.156;7.810;2024-03-29T15:08:20;11.20;;;7.70;;
75593;SDS011;64176;49.156;7.810;2024-03-29T15:13:50;7.03;;;6.18;;
75593;SDS011;64176;49.156;7.810;2024-03-29T15:16:41;3.35;;;2.38;;
75593;SDS011;64176;49.156;7.810;2024-03-29T15:19:27;4.15;;;3.22;;
75593;SDS011;64176;49.156;7.810;2024-03-29T15:22:11;4.40;;;3.50;;
75593;SDS011;64176;49.156;7.810;2024-03-29T15:24:59;2.80;;;2.03;;
75593;SDS011;64176;49.156;7.810;2024-03-29T15:27:43;2.92;;;2.72;;
75593;SDS011;64176;49.156;7.810;2024-03-29T15:30:46;7.22;;;5.60;;
75593;SDS011;64176;49.156;7.810;2024-03-29T15:33:37;2.75;;;2.55;;
75593;SDS011;64176;49.156;7.810;2024-03-29T15:36:22;3.13;;;2.92;;
75593;SDS011;64176;49.156;7.810;2024-03-29T15:39:06;6.65;;;6.15;;
75593;SDS011;64176;49.156;7.810;2024-03-29T15:41:55;6.30;;;4.43;;
75593;SDS011;64176;49.156;7.810;2024-03-29T15:44:39;8.13;;;7.32;;
75593;SDS011;64176;49.156;7.810;2024-03-29T15:47:26;2.95;;;2.65;;
75593;SDS011;64176;49.156;7.810;2024-03-29T15:52:56;3.15;;;2.95;;
75593;SDS011;64176;49.156;7.810;2024-03-29T15:55:40;3.63;;;3.33;;
75593;SDS011;64176;49.156;7.810;2024-03-29T15:58:25;2.50;;;2.35;;
75593;SDS011;64176;49.156;7.810;2024-03-29T16:01:09;2.45;;;2.05;;
75593;SDS011;64176;49.156;7.810;2024-03-29T16:03:56;3.13;;;2.92;;
75593;SDS011;64176;49.156;7.810;2024-03-29T16:06:40;1.45;;;1.35;;
75593;SDS011;64176;49.156;7.810;2024-03-29T16:09:29;6.80;;;5.05;;
75593;SDS011;64176;49.156;7.810;2024-03-29T16:12:13;3.70;;;3.40;;
75593;SDS011;64176;49.156;7.810;2024-03-29T16:14:58;4.90;;;4.30;;
75593;SDS011;64176;49.156;7.810;2024-03-29T16:17:44;6.10;;;5.60;;
75593;SDS011;64176;49.156;7.810;2024-03-29T16:20:30;2.33;;;1.85;;
75593;SDS011;64176;49.156;7.810;2024-03-29T16:23:17;2.25;;;1.85;;
75593;SDS011;64176;49.156;7.810;2024-03-29T16:26:01;1.70;;;1.60;;
75593;SDS011;64176;49.156;7.810;2024-03-29T16:28:46;3.00;;;1.80;;
75593;SDS011;64176;49.156;7.810;2024-03-29T16:31:35;3.95;;;2.75;;
75593;SDS011;64176;49.156;7.810;2024-03-29T16:34:24;2.97;;;2.67;;
75593;SDS011;64176;49.156;7.810;2024-03-29T16:37:08;4.22;;;3.83;;
75593;SDS011;64176;49.156;7.810;2024-03-29T16:39:52;11.80;;;10.90;;
75593;SDS011;64176;49.156;7.810;2024-03-29T16:42:36;11.52;;;10.38;;
75593;SDS011;64176;49.156;7.810;2024-03-29T16:50:52;2.97;;;2.03;;
75593;SDS011;64176;49.156;7.810;2024-03-29T16:53:36;6.18;;;4.53;;
75593;SDS011;64176;49.156;7.810;2024-03-29T16:56:20;7.25;;;6.55;;
75593;SDS011;64176;49.156;7.810;2024-03-29T16:59:07;3.85;;;3.55;;
75593;SDS011;64176;49.156;7.810;2024-03-29T17:01:51;4.13;;;3.65;;
75593;SDS011;64176;49.156;7.810;2024-03-29T17:04:37;6.45;;;5.85;;
75593;SDS011;64176;49.156;7.810;2024-03-29T17:07:21;9.85;;;8.75;;
75593;SDS011;64176;49.156;7.810;2024-03-29T17:10:08;14.07;;;12.70;;